Historyczne dane pomiarowe

Dodano dane terminowe – wersja testowa.

Dane z okresu 1951-2018

Wersja bazy: 1.27 [2018-11-28, lista zmian], aktualizacja planowana na 2018-12-07

Dane meteo z obszaru Polski uzyskane na podstawie danych udostępnionych przez Instytut Meteorologii i Gospodarki Wodnej – Państwowy Instytut Badawczy.

 

Wybierz Datę:    

       

TemperaturaWilgotnośćWiatrCiśnienieOpadyŚniegCzas trwania zjawisk
 Stacja t tx tn tng RH VA  wxwx mslp ppp RRR   cm mm wxwxwxwxwxwxwx
1978-11-08 2.0 6.3 1.2- 95.0- 5.3 4.0---- 0.0------------
1978-11-09 0.9 3.6 0.0- 93.8- 4.3 2.7---- 0.0------------
1978-11-10 0.5 3.9 -1.1- 91.3- 3.7 2.3---- 0.0------------
1978-11-11 -0.5 1.8 -1.4- 93.5- 0.7 6.0---- 0.0------------
1978-11-12 -1.6 1.0 -2.8- 92.0- 5.0 3.0---- 0.0------------
1978-11-13 -2.2 0.1 -3.8- 89.8- 0.0 8.0---- 0.0------------
1978-11-14 -0.8 1.8 -4.0- 86.8- 5.3 3.7---- 0.0------------
1978-11-15 -1.0 0.2 -1.6- 90.5- 5.0 11.0---- 0.0------------
1978-11-16 0.0 1.6 -1.5- 87.8- 4.0 7.3---- 0.0------------
1978-11-17 1.5 7.3 -1.4- 84.0- 0.7 3.0---- 0.0------------
1978-11-18 -0.6 1.1 -1.3- 93.5- 6.7 6.7---- 0.0------------
1978-11-19 0.0 1.6 -1.1- 88.3- 4.3 12.3---- 0.0------------
1978-11-20 0.1 2.2 -0.9- 88.5- 3.0 5.7---- 0.0------------
1978-11-21 1.1 5.0 -0.6- 87.8- 5.3 2.0---- 0.0------------
1978-11-22 0.7 1.6 -0.6- 89.3- 7.3 5.7---- 0.1------------
1978-11-23 2.1 3.4 1.0- 93.3- 8.0 9.0---- 0.7------------
1978-11-24 2.0 3.3 1.9- 96.0- 8.0 12.0---- 0.0------------
1978-11-25 2.9 4.9 1.6- 85.8- 2.3 6.3---- 0.0------------
1978-11-26 0.2 3.3 -0.8- 95.0- 6.0 3.7---- 0.0------------
1978-11-27 1.0 5.2 -3.4- 88.8- 5.3 1.3---- 2.2------------
1978-11-28 -0.3 1.1 -0.7- 96.0- 8.0 3.7---- 9.2------------
1978-11-29 -1.0 0.4 -1.8- 94.8- 6.0 4.3---- 0.2-- 14---------
1978-11-30 -0.4 0.2 -7.5- 97.5- 8.0 3.3---- 4.8-- 12---------
1978-12-01 0.9 1.4 0.2- 97.5- 8.0 1.3---- 0.7-- 12---------
1978-12-02 0.3 1.3 0.1- 96.3- 8.0 1.3---- 0.3-- 8---------
1978-12-03 -2.6 0.3 -4.7- 85.8- 8.0 0.3---- 0.1-- 7---------
1978-12-04-10.5 -4.7-12.8- 84.8- 6.7 2.3---- 0.1-- 7---------
1978-12-05-13.2 -9.2-19.2- 79.5- 7.0 2.0---- 0.3-- 7---------
1978-12-06-11.5 -7.9-18.4- 85.0- 3.7 0.7---- 0.0-- 10---------
1978-12-07-16.9 -9.4-23.2- 82.8- 1.3 1.7---- 0.0-- 8---------
192.5 ms

 

Źródłem pochodzenia danych jest Instytut Meteorologii i Gospodarki Wodnej – Państwowy Instytut Badawczy. Dane Instytutu Meteorologii i Gospodarki Wodnej – Państwowego Instytutu Badawczego zostały przetworzone.

Dane źródłowe można odnaleźć na stronie https://dane.imgw.pl